sensor_id;sensor_type;location;lat;lon;timestamp;temperature;humidity
32366;DHT22;18837;46.832;16.838;2022-09-01T00:01:56;22.70;70.00
32366;DHT22;18837;46.832;16.838;2022-09-01T00:04:24;22.70;70.00
32366;DHT22;18837;46.832;16.838;2022-09-01T00:06:53;22.70;70.00
32366;DHT22;18837;46.832;16.838;2022-09-01T00:09:20;22.70;69.90
32366;DHT22;18837;46.832;16.838;2022-09-01T00:11:49;22.70;70.20
32366;DHT22;18837;46.832;16.838;2022-09-01T00:14:18;22.70;70.00
32366;DHT22;18837;46.832;16.838;2022-09-01T00:16:45;22.70;70.00
32366;DHT22;18837;46.832;16.838;2022-09-01T00:19:11;22.80;69.90
32366;DHT22;18837;46.832;16.838;2022-09-01T00:21:40;22.70;69.90
32366;DHT22;18837;46.832;16.838;2022-09-01T00:27:23;22.70;69.30
32366;DHT22;18837;46.832;16.838;2022-09-01T00:29:49;22.70;69.90
32366;DHT22;18837;46.832;16.838;2022-09-01T00:32:14;22.80;69.70
32366;DHT22;18837;46.832;16.838;2022-09-01T00:34:40;22.70;69.80
32366;DHT22;18837;46.832;16.838;2022-09-01T00:37:06;22.70;69.80
32366;DHT22;18837;46.832;16.838;2022-09-01T00:39:32;22.70;70.00
32366;DHT22;18837;46.832;16.838;2022-09-01T00:41:58;22.70;70.10
32366;DHT22;18837;46.832;16.838;2022-09-01T00:44:24;22.70;70.00
32366;DHT22;18837;46.832;16.838;2022-09-01T00:46:53;22.70;70.50
32366;DHT22;18837;46.832;16.838;2022-09-01T00:49:30;22.70;70.90
32366;DHT22;18837;46.832;16.838;2022-09-01T00:52:04;22.60;69.90
32366;DHT22;18837;46.832;16.838;2022-09-01T00:54:35;22.60;70.80
32366;DHT22;18837;46.832;16.838;2022-09-01T00:57:03;22.60;70.90
32366;DHT22;18837;46.832;16.838;2022-09-01T00:59:29;22.50;70.80
32366;DHT22;18837;46.832;16.838;2022-09-01T01:01:57;22.50;71.00
32366;DHT22;18837;46.832;16.838;2022-09-01T01:04:23;22.50;70.70
32366;DHT22;18837;46.832;16.838;2022-09-01T01:06:53;22.50;71.20
32366;DHT22;18837;46.832;16.838;2022-09-01T01:09:28;22.40;71.40
32366;DHT22;18837;46.832;16.838;2022-09-01T01:11:54;22.50;71.40
32366;DHT22;18837;46.832;16.838;2022-09-01T01:14:26;22.40;71.30
32366;DHT22;18837;46.832;16.838;2022-09-01T01:16:55;22.40;71.70
32366;DHT22;18837;46.832;16.838;2022-09-01T01:19:45;22.40;71.20
32366;DHT22;18837;46.832;16.838;2022-09-01T01:25:49;22.40;70.80
32366;DHT22;18837;46.832;16.838;2022-09-01T01:28:26;22.40;70.80
32366;DHT22;18837;46.832;16.838;2022-09-01T01:30:56;22.40;70.70
32366;DHT22;18837;46.832;16.838;2022-09-01T01:33:42;22.40;71.20
32366;DHT22;18837;46.832;16.838;2022-09-01T01:36:33;22.40;71.00
32366;DHT22;18837;46.832;16.838;2022-09-01T01:39:13;22.40;71.10
32366;DHT22;18837;46.832;16.838;2022-09-01T01:41:40;22.40;71.10
32366;DHT22;18837;46.832;16.838;2022-09-01T01:44:12;22.40;71.00
32366;DHT22;18837;46.832;16.838;2022-09-01T01:46:44;22.40;71.20
32366;DHT22;18837;46.832;16.838;2022-09-01T01:49:12;22.40;71.00
32366;DHT22;18837;46.832;16.838;2022-09-01T01:51:44;22.40;71.20
32366;DHT22;18837;46.832;16.838;2022-09-01T01:54:12;22.40;71.20
32366;DHT22;18837;46.832;16.838;2022-09-01T01:56:38;22.40;71.30
32366;DHT22;18837;46.832;16.838;2022-09-01T01:59:07;22.30;71.50
32366;DHT22;18837;46.832;16.838;2022-09-01T02:01:38;22.30;71.30
32366;DHT22;18837;46.832;16.838;2022-09-01T02:04:04;22.30;71.10
32366;DHT22;18837;46.832;16.838;2022-09-01T02:06:33;22.30;71.70
32366;DHT22;18837;46.832;16.838;2022-09-01T02:09:00;22.30;71.70
32366;DHT22;18837;46.832;16.838;2022-09-01T02:11:28;22.20;71.80
32366;DHT22;18837;46.832;16.838;2022-09-01T02:13:55;22.20;71.70
32366;DHT22;18837;46.832;16.838;2022-09-01T02:16:24;22.20;72.00
32366;DHT22;18837;46.832;16.838;2022-09-01T02:18:50;22.20;72.30
32366;DHT22;18837;46.832;16.838;2022-09-01T02:21:18;22.20;72.10
32366;DHT22;18837;46.832;16.838;2022-09-01T02:23:47;22.20;72.20
32366;DHT22;18837;46.832;16.838;2022-09-01T02:26:15;22.20;72.30
32366;DHT22;18837;46.832;16.838;2022-09-01T02:28:45;22.20;72.30
32366;DHT22;18837;46.832;16.838;2022-09-01T02:31:13;22.20;71.90
32366;DHT22;18837;46.832;16.838;2022-09-01T02:33:40;22.20;71.90
32366;DHT22;18837;46.832;16.838;2022-09-01T02:36:13;22.10;71.80
32366;DHT22;18837;46.832;16.838;2022-09-01T02:38:41;22.20;71.80
32366;DHT22;18837;46.832;16.838;2022-09-01T02:41:11;22.20;71.60
32366;DHT22;18837;46.832;16.838;2022-09-01T02:43:40;22.20;71.80
32366;DHT22;18837;46.832;16.838;2022-09-01T02:46:09;22.20;71.70
32366;DHT22;18837;46.832;16.838;2022-09-01T02:48:39;22.20;71.80
32366;DHT22;18837;46.832;16.838;2022-09-01T02:51:12;22.20;72.90
32366;DHT22;18837;46.832;16.838;2022-09-01T02:53:39;22.20;71.80
32366;DHT22;18837;46.832;16.838;2022-09-01T02:56:09;22.20;71.70
32366;DHT22;18837;46.832;16.838;2022-09-01T02:58:39;22.20;71.60
32366;DHT22;18837;46.832;16.838;2022-09-01T03:03:47;22.20;71.90
32366;DHT22;18837;46.832;16.838;2022-09-01T03:06:13;22.20;71.90
32366;DHT22;18837;46.832;16.838;2022-09-01T03:08:42;22.10;71.90
32366;DHT22;18837;46.832;16.838;2022-09-01T03:11:08;22.10;72.20
32366;DHT22;18837;46.832;16.838;2022-09-01T03:13:37;22.10;72.20
32366;DHT22;18837;46.832;16.838;2022-09-01T03:16:10;22.10;72.60
32366;DHT22;18837;46.832;16.838;2022-09-01T03:18:37;22.10;72.50
32366;DHT22;18837;46.832;16.838;2022-09-01T03:21:04;22.00;72.60
32366;DHT22;18837;46.832;16.838;2022-09-01T03:23:31;22.00;72.80
32366;DHT22;18837;46.832;16.838;2022-09-01T03:25:58;22.00;72.50
32366;DHT22;18837;46.832;16.838;2022-09-01T03:28:24;22.00;72.90
32366;DHT22;18837;46.832;16.838;2022-09-01T03:30:51;22.00;72.80
32366;DHT22;18837;46.832;16.838;2022-09-01T03:33:19;22.00;72.90
32366;DHT22;18837;46.832;16.838;2022-09-01T03:35:46;22.00;73.10
32366;DHT22;18837;46.832;16.838;2022-09-01T03:38:14;22.00;72.90
32366;DHT22;18837;46.832;16.838;2022-09-01T03:40:51;22.00;72.80
32366;DHT22;18837;46.832;16.838;2022-09-01T03:43:18;22.00;72.50
32366;DHT22;18837;46.832;16.838;2022-09-01T03:45:45;22.00;72.90
32366;DHT22;18837;46.832;16.838;2022-09-01T03:48:11;21.90;72.40
32366;DHT22;18837;46.832;16.838;2022-09-01T03:50:41;22.00;72.40
32366;DHT22;18837;46.832;16.838;2022-09-01T03:53:11;22.00;72.60
32366;DHT22;18837;46.832;16.838;2022-09-01T03:55:37;22.00;72.20
32366;DHT22;18837;46.832;16.838;2022-09-01T03:58:08;22.00;72.40
32366;DHT22;18837;46.832;16.838;2022-09-01T04:00:38;22.00;72.30
32366;DHT22;18837;46.832;16.838;2022-09-01T04:03:07;22.00;72.20
32366;DHT22;18837;46.832;16.838;2022-09-01T04:05:34;22.00;72.40
32366;DHT22;18837;46.832;16.838;2022-09-01T04:08:04;22.00;72.30
32366;DHT22;18837;46.832;16.838;2022-09-01T04:10:35;22.00;72.40
32366;DHT22;18837;46.832;16.838;2022-09-01T04:13:03;22.00;72.50
32366;DHT22;18837;46.832;16.838;2022-09-01T04:15:29;22.00;72.30
32366;DHT22;18837;46.832;16.838;2022-09-01T04:17:57;21.90;72.30
32366;DHT22;18837;46.832;16.838;2022-09-01T04:20:39;21.90;73.20
32366;DHT22;18837;46.832;16.838;2022-09-01T04:23:19;21.90;73.00
32366;DHT22;18837;46.832;16.838;2022-09-01T04:26:09;21.80;73.00
32366;DHT22;18837;46.832;16.838;2022-09-01T04:28:39;21.80;73.30
32366;DHT22;18837;46.832;16.838;2022-09-01T04:31:07;21.80;73.50
32366;DHT22;18837;46.832;16.838;2022-09-01T04:33:35;21.80;73.40
32366;DHT22;18837;46.832;16.838;2022-09-01T04:36:25;21.80;73.50
32366;DHT22;18837;46.832;16.838;2022-09-01T04:38:52;21.80;73.60
32366;DHT22;18837;46.832;16.838;2022-09-01T04:41:20;21.70;73.70
32366;DHT22;18837;46.832;16.838;2022-09-01T04:43:48;21.70;73.80
32366;DHT22;18837;46.832;16.838;2022-09-01T04:46:17;21.70;73.90
32366;DHT22;18837;46.832;16.838;2022-09-01T04:48:44;21.70;73.30
32366;DHT22;18837;46.832;16.838;2022-09-01T04:51:13;21.70;73.40
32366;DHT22;18837;46.832;16.838;2022-09-01T04:53:41;21.70;73.40
32366;DHT22;18837;46.832;16.838;2022-09-01T04:56:17;21.70;73.00
32366;DHT22;18837;46.832;16.838;2022-09-01T04:58:50;21.70;72.90
32366;DHT22;18837;46.832;16.838;2022-09-01T05:01:19;21.70;73.00
32366;DHT22;18837;46.832;16.838;2022-09-01T05:03:46;21.70;73.00
32366;DHT22;18837;46.832;16.838;2022-09-01T05:06:23;21.80;74.00
32366;DHT22;18837;46.832;16.838;2022-09-01T05:08:49;21.80;73.20
32366;DHT22;18837;46.832;16.838;2022-09-01T05:11:17;21.80;73.10
32366;DHT22;18837;46.832;16.838;2022-09-01T05:13:44;21.80;73.00
32366;DHT22;18837;46.832;16.838;2022-09-01T05:16:11;21.80;72.80
32366;DHT22;18837;46.832;16.838;2022-09-01T05:18:42;21.80;72.90
32366;DHT22;18837;46.832;16.838;2022-09-01T05:21:13;21.80;73.10
32366;DHT22;18837;46.832;16.838;2022-09-01T05:23:41;21.70;72.90
32366;DHT22;18837;46.832;16.838;2022-09-01T05:26:23;21.70;73.10
32366;DHT22;18837;46.832;16.838;2022-09-01T05:28:53;21.70;73.50
32366;DHT22;18837;46.832;16.838;2022-09-01T05:31:21;21.70;73.70
32366;DHT22;18837;46.832;16.838;2022-09-01T05:33:48;21.70;73.70
32366;DHT22;18837;46.832;16.838;2022-09-01T05:36:17;21.70;73.90
32366;DHT22;18837;46.832;16.838;2022-09-01T05:38:45;21.60;73.90
32366;DHT22;18837;46.832;16.838;2022-09-01T05:41:14;21.60;73.80
32366;DHT22;18837;46.832;16.838;2022-09-01T05:43:41;21.60;73.80
32366;DHT22;18837;46.832;16.838;2022-09-01T05:46:15;21.60;74.20
32366;DHT22;18837;46.832;16.838;2022-09-01T05:48:42;21.60;74.10
32366;DHT22;18837;46.832;16.838;2022-09-01T05:51:10;21.60;74.20
32366;DHT22;18837;46.832;16.838;2022-09-01T05:53:36;21.60;74.10
32366;DHT22;18837;46.832;16.838;2022-09-01T05:56:06;21.60;73.90
32366;DHT22;18837;46.832;16.838;2022-09-01T05:58:34;21.60;74.00
32366;DHT22;18837;46.832;16.838;2022-09-01T06:01:01;21.60;74.50
32366;DHT22;18837;46.832;16.838;2022-09-01T06:03:27;21.60;73.90
32366;DHT22;18837;46.832;16.838;2022-09-01T06:05:54;21.70;73.90
32366;DHT22;18837;46.832;16.838;2022-09-01T06:08:23;21.60;73.60
32366;DHT22;18837;46.832;16.838;2022-09-01T06:10:51;21.70;73.50
32366;DHT22;18837;46.832;16.838;2022-09-01T06:13:18;21.70;73.20
32366;DHT22;18837;46.832;16.838;2022-09-01T06:15:47;21.70;73.10
32366;DHT22;18837;46.832;16.838;2022-09-01T06:18:13;21.70;73.10
32366;DHT22;18837;46.832;16.838;2022-09-01T06:20:44;21.70;73.10
32366;DHT22;18837;46.832;16.838;2022-09-01T06:23:15;21.70;73.50
32366;DHT22;18837;46.832;16.838;2022-09-01T06:25:43;21.70;73.20
32366;DHT22;18837;46.832;16.838;2022-09-01T06:28:16;21.70;73.20
32366;DHT22;18837;46.832;16.838;2022-09-01T06:30:43;21.70;72.90
32366;DHT22;18837;46.832;16.838;2022-09-01T06:33:11;21.70;73.40
32366;DHT22;18837;46.832;16.838;2022-09-01T06:35:39;21.70;73.40
32366;DHT22;18837;46.832;16.838;2022-09-01T06:38:08;21.70;73.70
32366;DHT22;18837;46.832;16.838;2022-09-01T06:40:36;21.60;73.50
32366;DHT22;18837;46.832;16.838;2022-09-01T06:43:06;21.60;73.50
32366;DHT22;18837;46.832;16.838;2022-09-01T06:45:38;21.60;73.50
32366;DHT22;18837;46.832;16.838;2022-09-01T06:48:05;21.60;73.60
32366;DHT22;18837;46.832;16.838;2022-09-01T06:50:31;21.60;73.70
32366;DHT22;18837;46.832;16.838;2022-09-01T06:52:57;21.60;74.00
32366;DHT22;18837;46.832;16.838;2022-09-01T06:55:40;21.60;74.10
32366;DHT22;18837;46.832;16.838;2022-09-01T06:58:07;21.60;73.90
32366;DHT22;18837;46.832;16.838;2022-09-01T07:00:36;21.60;74.00
32366;DHT22;18837;46.832;16.838;2022-09-01T07:03:04;21.60;73.60
32366;DHT22;18837;46.832;16.838;2022-09-01T07:05:33;21.70;73.80
32366;DHT22;18837;46.832;16.838;2022-09-01T07:08:00;21.70;73.60
32366;DHT22;18837;46.832;16.838;2022-09-01T07:10:26;21.80;74.00
32366;DHT22;18837;46.832;16.838;2022-09-01T07:12:56;21.80;73.50
32366;DHT22;18837;46.832;16.838;2022-09-01T07:15:24;21.80;73.50
32366;DHT22;18837;46.832;16.838;2022-09-01T07:17:55;21.80;73.50
32366;DHT22;18837;46.832;16.838;2022-09-01T07:20:26;21.90;73.80
32366;DHT22;18837;46.832;16.838;2022-09-01T07:22:55;21.90;73.50
32366;DHT22;18837;46.832;16.838;2022-09-01T07:25:21;21.90;73.80
32366;DHT22;18837;46.832;16.838;2022-09-01T07:27:48;21.90;73.50
32366;DHT22;18837;46.832;16.838;2022-09-01T07:30:20;21.90;73.70
32366;DHT22;18837;46.832;16.838;2022-09-01T07:32:47;21.90;73.80
32366;DHT22;18837;46.832;16.838;2022-09-01T07:35:17;21.90;73.70
32366;DHT22;18837;46.832;16.838;2022-09-01T07:37:45;21.90;73.40
32366;DHT22;18837;46.832;16.838;2022-09-01T07:40:16;21.90;73.80
32366;DHT22;18837;46.832;16.838;2022-09-01T07:42:44;21.80;74.20
32366;DHT22;18837;46.832;16.838;2022-09-01T07:45:13;21.80;73.80
32366;DHT22;18837;46.832;16.838;2022-09-01T07:47:42;21.70;74.30
32366;DHT22;18837;46.832;16.838;2022-09-01T07:50:11;21.80;74.40
32366;DHT22;18837;46.832;16.838;2022-09-01T07:52:40;21.70;74.40
32366;DHT22;18837;46.832;16.838;2022-09-01T07:55:14;21.70;74.50
32366;DHT22;18837;46.832;16.838;2022-09-01T07:57:43;21.70;74.50
32366;DHT22;18837;46.832;16.838;2022-09-01T08:00:14;21.70;74.70
32366;DHT22;18837;46.832;16.838;2022-09-01T08:02:42;21.70;74.30
32366;DHT22;18837;46.832;16.838;2022-09-01T08:05:15;21.70;74.40
32366;DHT22;18837;46.832;16.838;2022-09-01T08:07:48;21.70;74.20
32366;DHT22;18837;46.832;16.838;2022-09-01T08:10:15;21.80;74.50
32366;DHT22;18837;46.832;16.838;2022-09-01T08:12:41;21.80;74.10
32366;DHT22;18837;46.832;16.838;2022-09-01T08:15:08;21.90;74.10
32366;DHT22;18837;46.832;16.838;2022-09-01T08:17:36;21.90;73.90
32366;DHT22;18837;46.832;16.838;2022-09-01T08:20:02;22.00;73.80
32366;DHT22;18837;46.832;16.838;2022-09-01T08:22:31;22.00;73.30
32366;DHT22;18837;46.832;16.838;2022-09-01T08:24:57;22.00;73.40
32366;DHT22;18837;46.832;16.838;2022-09-01T08:27:23;22.10;73.10
32366;DHT22;18837;46.832;16.838;2022-09-01T08:29:49;22.10;73.10
32366;DHT22;18837;46.832;16.838;2022-09-01T08:32:15;22.10;73.00
32366;DHT22;18837;46.832;16.838;2022-09-01T08:34:41;22.20;73.00
32366;DHT22;18837;46.832;16.838;2022-09-01T08:37:08;22.10;73.00
32366;DHT22;18837;46.832;16.838;2022-09-01T08:39:33;22.20;73.10
32366;DHT22;18837;46.832;16.838;2022-09-01T08:42:18;22.20;73.30
32366;DHT22;18837;46.832;16.838;2022-09-01T08:44:52;22.10;73.40
32366;DHT22;18837;46.832;16.838;2022-09-01T08:47:20;22.10;73.30
32366;DHT22;18837;46.832;16.838;2022-09-01T08:49:47;22.10;73.40
32366;DHT22;18837;46.832;16.838;2022-09-01T08:52:40;22.00;73.40
32366;DHT22;18837;46.832;16.838;2022-09-01T08:55:46;22.00;73.70
32366;DHT22;18837;46.832;16.838;2022-09-01T08:58:16;22.00;73.90
32366;DHT22;18837;46.832;16.838;2022-09-01T09:00:45;22.00;74.10
32366;DHT22;18837;46.832;16.838;2022-09-01T09:06:01;21.90;74.10
32366;DHT22;18837;46.832;16.838;2022-09-01T09:17:13;22.00;73.40
32366;DHT22;18837;46.832;16.838;2022-09-01T09:19:42;22.10;73.50
32366;DHT22;18837;46.832;16.838;2022-09-01T09:22:11;22.10;73.40
32366;DHT22;18837;46.832;16.838;2022-09-01T09:24:51;22.10;73.20
32366;DHT22;18837;46.832;16.838;2022-09-01T09:27:37;22.20;72.00
32366;DHT22;18837;46.832;16.838;2022-09-01T09:30:08;22.30;72.30
32366;DHT22;18837;46.832;16.838;2022-09-01T09:32:51;22.30;72.00
32366;DHT22;18837;46.832;16.838;2022-09-01T09:35:29;22.40;72.10
32366;DHT22;18837;46.832;16.838;2022-09-01T09:43:56;22.50;71.30
32366;DHT22;18837;46.832;16.838;2022-09-01T09:46:42;22.50;70.90
32366;DHT22;18837;46.832;16.838;2022-09-01T09:49:20;22.40;72.10
32366;DHT22;18837;46.832;16.838;2022-09-01T09:54:37;22.30;72.00
32366;DHT22;18837;46.832;16.838;2022-09-01T09:57:12;22.30;73.00
32366;DHT22;18837;46.832;16.838;2022-09-01T10:05:41;22.20;72.50
32366;DHT22;18837;46.832;16.838;2022-09-01T10:10:59;22.10;73.20
32366;DHT22;18837;46.832;16.838;2022-09-01T10:13:26;22.20;73.40
32366;DHT22;18837;46.832;16.838;2022-09-01T10:15:57;22.10;73.40
32366;DHT22;18837;46.832;16.838;2022-09-01T10:18:35;22.10;73.20
32366;DHT22;18837;46.832;16.838;2022-09-01T10:21:15;22.10;73.10
32366;DHT22;18837;46.832;16.838;2022-09-01T10:23:42;22.20;72.60
32366;DHT22;18837;46.832;16.838;2022-09-01T10:26:22;22.30;72.50
32366;DHT22;18837;46.832;16.838;2022-09-01T10:28:59;22.30;71.70
32366;DHT22;18837;46.832;16.838;2022-09-01T10:31:29;22.40;71.00
32366;DHT22;18837;46.832;16.838;2022-09-01T10:33:55;22.50;71.40
32366;DHT22;18837;46.832;16.838;2022-09-01T10:36:28;22.50;71.70
32366;DHT22;18837;46.832;16.838;2022-09-01T10:38:55;22.60;71.20
32366;DHT22;18837;46.832;16.838;2022-09-01T10:41:47;22.60;71.00
32366;DHT22;18837;46.832;16.838;2022-09-01T10:44:21;22.60;70.30
32366;DHT22;18837;46.832;16.838;2022-09-01T10:46:49;22.70;71.30
32366;DHT22;18837;46.832;16.838;2022-09-01T10:51:54;22.70;70.70
32366;DHT22;18837;46.832;16.838;2022-09-01T11:03:32;22.70;70.90
32366;DHT22;18837;46.832;16.838;2022-09-01T11:06:07;22.60;69.90
32366;DHT22;18837;46.832;16.838;2022-09-01T11:14:24;22.50;70.20
32366;DHT22;18837;46.832;16.838;2022-09-01T11:23:30;22.50;70.00
32366;DHT22;18837;46.832;16.838;2022-09-01T11:25:42;22.50;70.90
32366;DHT22;18837;46.832;16.838;2022-09-01T11:36:03;22.60;69.50
32366;DHT22;18837;46.832;16.838;2022-09-01T11:38:56;22.70;69.90
32366;DHT22;18837;46.832;16.838;2022-09-01T11:41:30;22.80;69.00
32366;DHT22;18837;46.832;16.838;2022-09-01T11:43:59;22.80;69.50
32366;DHT22;18837;46.832;16.838;2022-09-01T11:46:40;22.90;69.50
32366;DHT22;18837;46.832;16.838;2022-09-01T11:52:40;23.00;68.60
32366;DHT22;18837;46.832;16.838;2022-09-01T11:55:06;23.00;68.60
32366;DHT22;18837;46.832;16.838;2022-09-01T11:57:34;23.00;68.60
32366;DHT22;18837;46.832;16.838;2022-09-01T12:00:06;23.00;68.70
32366;DHT22;18837;46.832;16.838;2022-09-01T12:02:35;23.10;68.10
32366;DHT22;18837;46.832;16.838;2022-09-01T12:05:03;23.10;68.20
32366;DHT22;18837;46.832;16.838;2022-09-01T12:07:47;23.10;68.10
32366;DHT22;18837;46.832;16.838;2022-09-01T12:10:23;23.10;67.70
32366;DHT22;18837;46.832;16.838;2022-09-01T12:13:16;23.10;66.80
32366;DHT22;18837;46.832;16.838;2022-09-01T12:15:42;23.00;67.00
32366;DHT22;18837;46.832;16.838;2022-09-01T12:18:19;23.00;66.80
32366;DHT22;18837;46.832;16.838;2022-09-01T12:24:24;22.90;66.00
32366;DHT22;18837;46.832;16.838;2022-09-01T12:26:52;22.90;65.80
32366;DHT22;18837;46.832;16.838;2022-09-01T12:29:19;22.90;67.20
32366;DHT22;18837;46.832;16.838;2022-09-01T12:31:47;22.80;64.80
32366;DHT22;18837;46.832;16.838;2022-09-01T12:34:36;22.70;65.90
32366;DHT22;18837;46.832;16.838;2022-09-01T12:39:54;22.60;65.50
32366;DHT22;18837;46.832;16.838;2022-09-01T12:42:30;22.70;66.20
32366;DHT22;18837;46.832;16.838;2022-09-01T12:45:04;22.80;66.30
32366;DHT22;18837;46.832;16.838;2022-09-01T12:52:51;23.10;64.50
32366;DHT22;18837;46.832;16.838;2022-09-01T12:55:21;23.10;64.40
32366;DHT22;18837;46.832;16.838;2022-09-01T12:57:54;23.20;65.00
32366;DHT22;18837;46.832;16.838;2022-09-01T13:00:31;23.20;64.50
32366;DHT22;18837;46.832;16.838;2022-09-01T13:03:15;23.30;64.90
32366;DHT22;18837;46.832;16.838;2022-09-01T13:05:44;23.40;64.50
32366;DHT22;18837;46.832;16.838;2022-09-01T13:08:22;23.40;64.50
32366;DHT22;18837;46.832;16.838;2022-09-01T13:10:56;23.40;64.20
32366;DHT22;18837;46.832;16.838;2022-09-01T13:13:25;23.40;64.70
32366;DHT22;18837;46.832;16.838;2022-09-01T13:15:58;23.50;64.60
32366;DHT22;18837;46.832;16.838;2022-09-01T13:18:29;23.50;64.20
32366;DHT22;18837;46.832;16.838;2022-09-01T13:20:56;23.50;64.10
32366;DHT22;18837;46.832;16.838;2022-09-01T13:23:23;23.60;64.30
32366;DHT22;18837;46.832;16.838;2022-09-01T13:25:52;23.50;64.50
32366;DHT22;18837;46.832;16.838;2022-09-01T13:28:18;23.50;64.30
32366;DHT22;18837;46.832;16.838;2022-09-01T13:31:09;23.40;64.70
32366;DHT22;18837;46.832;16.838;2022-09-01T13:33:40;23.40;65.30
32366;DHT22;18837;46.832;16.838;2022-09-01T13:36:06;23.40;65.00
32366;DHT22;18837;46.832;16.838;2022-09-01T13:38:32;23.40;65.40
32366;DHT22;18837;46.832;16.838;2022-09-01T13:40:59;23.40;65.50
32366;DHT22;18837;46.832;16.838;2022-09-01T13:43:26;23.40;65.50
32366;DHT22;18837;46.832;16.838;2022-09-01T13:45:53;23.40;65.80
32366;DHT22;18837;46.832;16.838;2022-09-01T13:48:21;23.40;66.20
32366;DHT22;18837;46.832;16.838;2022-09-01T13:50:48;23.40;66.10
32366;DHT22;18837;46.832;16.838;2022-09-01T13:53:15;23.40;66.10
32366;DHT22;18837;46.832;16.838;2022-09-01T13:55:41;23.40;66.20
32366;DHT22;18837;46.832;16.838;2022-09-01T13:58:08;23.50;66.40
32366;DHT22;18837;46.832;16.838;2022-09-01T14:00:36;23.50;66.60
32366;DHT22;18837;46.832;16.838;2022-09-01T14:03:22;23.60;65.90
32366;DHT22;18837;46.832;16.838;2022-09-01T14:05:54;23.60;65.70
32366;DHT22;18837;46.832;16.838;2022-09-01T14:08:32;23.70;65.50
32366;DHT22;18837;46.832;16.838;2022-09-01T14:10:58;23.70;65.60
32366;DHT22;18837;46.832;16.838;2022-09-01T14:13:25;23.70;65.60
32366;DHT22;18837;46.832;16.838;2022-09-01T14:15:52;23.70;65.30
32366;DHT22;18837;46.832;16.838;2022-09-01T14:18:19;23.70;65.40
32366;DHT22;18837;46.832;16.838;2022-09-01T14:20:47;23.70;65.10
32366;DHT22;18837;46.832;16.838;2022-09-01T14:23:20;23.70;65.30
32366;DHT22;18837;46.832;16.838;2022-09-01T14:25:51;23.70;65.20
32366;DHT22;18837;46.832;16.838;2022-09-01T14:28:20;23.70;65.20
32366;DHT22;18837;46.832;16.838;2022-09-01T14:30:47;23.70;64.90
32366;DHT22;18837;46.832;16.838;2022-09-01T14:33:14;23.70;65.30
32366;DHT22;18837;46.832;16.838;2022-09-01T14:35:42;23.70;65.20
32366;DHT22;18837;46.832;16.838;2022-09-01T14:38:12;23.70;65.40
32366;DHT22;18837;46.832;16.838;2022-09-01T14:40:56;23.60;65.50
32366;DHT22;18837;46.832;16.838;2022-09-01T14:43:27;23.60;65.80
32366;DHT22;18837;46.832;16.838;2022-09-01T14:46:04;23.50;65.90
32366;DHT22;18837;46.832;16.838;2022-09-01T14:48:35;23.40;65.90
32366;DHT22;18837;46.832;16.838;2022-09-01T14:51:03;23.40;66.30
32366;DHT22;18837;46.832;16.838;2022-09-01T14:53:30;23.40;66.50
32366;DHT22;18837;46.832;16.838;2022-09-01T14:55:57;23.30;66.40
32366;DHT22;18837;46.832;16.838;2022-09-01T14:58:28;23.30;66.60
32366;DHT22;18837;46.832;16.838;2022-09-01T15:00:55;23.20;66.80
32366;DHT22;18837;46.832;16.838;2022-09-01T15:03:25;23.20;66.40
32366;DHT22;18837;46.832;16.838;2022-09-01T15:05:52;23.10;66.90
32366;DHT22;18837;46.832;16.838;2022-09-01T15:08:20;23.10;67.20
32366;DHT22;18837;46.832;16.838;2022-09-01T15:10:46;23.10;67.20
32366;DHT22;18837;46.832;16.838;2022-09-01T15:17:18;23.10;67.70
32366;DHT22;18837;46.832;16.838;2022-09-01T15:19:45;23.20;66.90
32366;DHT22;18837;46.832;16.838;2022-09-01T15:22:11;23.20;66.90
32366;DHT22;18837;46.832;16.838;2022-09-01T15:24:40;23.20;66.90
32366;DHT22;18837;46.832;16.838;2022-09-01T15:27:07;23.30;67.20
32366;DHT22;18837;46.832;16.838;2022-09-01T15:29:33;23.30;66.80
32366;DHT22;18837;46.832;16.838;2022-09-01T15:32:04;23.30;66.80
32366;DHT22;18837;46.832;16.838;2022-09-01T15:34:30;23.30;66.80
32366;DHT22;18837;46.832;16.838;2022-09-01T15:36:56;23.30;66.90
32366;DHT22;18837;46.832;16.838;2022-09-01T15:39:22;23.30;67.10
32366;DHT22;18837;46.832;16.838;2022-09-01T15:41:47;23.30;66.60
32366;DHT22;18837;46.832;16.838;2022-09-01T15:44:13;23.30;66.80
32366;DHT22;18837;46.832;16.838;2022-09-01T15:46:59;23.30;66.90
32366;DHT22;18837;46.832;16.838;2022-09-01T15:49:46;23.30;67.10
32366;DHT22;18837;46.832;16.838;2022-09-01T15:52:31;23.30;67.20
32366;DHT22;18837;46.832;16.838;2022-09-01T15:54:57;23.30;66.80
32366;DHT22;18837;46.832;16.838;2022-09-01T15:57:23;23.20;67.20
32366;DHT22;18837;46.832;16.838;2022-09-01T15:59:50;23.20;67.10
32366;DHT22;18837;46.832;16.838;2022-09-01T16:02:16;23.10;67.50
32366;DHT22;18837;46.832;16.838;2022-09-01T16:04:46;23.10;67.70
32366;DHT22;18837;46.832;16.838;2022-09-01T16:07:18;23.00;68.50
32366;DHT22;18837;46.832;16.838;2022-09-01T16:09:45;23.00;68.30
32366;DHT22;18837;46.832;16.838;2022-09-01T16:12:11;22.90;68.90
32366;DHT22;18837;46.832;16.838;2022-09-01T16:14:38;22.90;68.50
32366;DHT22;18837;46.832;16.838;2022-09-01T16:20:20;22.90;69.30
32366;DHT22;18837;46.832;16.838;2022-09-01T16:23:20;22.80;69.40
32366;DHT22;18837;46.832;16.838;2022-09-01T16:26:04;22.80;69.50
32366;DHT22;18837;46.832;16.838;2022-09-01T16:28:34;22.80;69.00
32366;DHT22;18837;46.832;16.838;2022-09-01T16:31:11;22.80;68.80
32366;DHT22;18837;46.832;16.838;2022-09-01T16:33:42;22.90;68.40
32366;DHT22;18837;46.832;16.838;2022-09-01T16:39:22;23.00;68.30
32366;DHT22;18837;46.832;16.838;2022-09-01T16:42:18;23.00;68.20
32366;DHT22;18837;46.832;16.838;2022-09-01T17:02:29;23.10;68.00
32366;DHT22;18837;46.832;16.838;2022-09-01T17:05:29;23.00;67.80
32366;DHT22;18837;46.832;16.838;2022-09-01T17:08:24;23.00;68.00
32366;DHT22;18837;46.832;16.838;2022-09-01T17:13:59;22.90;68.30
32366;DHT22;18837;46.832;16.838;2022-09-01T17:16:41;22.90;68.40
32366;DHT22;18837;46.832;16.838;2022-09-01T17:19:14;22.80;68.80
32366;DHT22;18837;46.832;16.838;2022-09-01T17:21:45;22.70;69.00
32366;DHT22;18837;46.832;16.838;2022-09-01T17:24:44;22.70;69.20
32366;DHT22;18837;46.832;16.838;2022-09-01T17:27:17;22.60;70.00
32366;DHT22;18837;46.832;16.838;2022-09-01T17:29:50;22.50;69.50
32366;DHT22;18837;46.832;16.838;2022-09-01T17:36:11;22.40;70.30
32366;DHT22;18837;46.832;16.838;2022-09-01T17:38:58;22.40;70.30